Time;durP1;ratioP1;P1;durP2;ratioP2;P2;SDS_P1;SDS_P2;PMS_P1;PMS_P2;Temp;Humidity;BMP_temperature;BMP_pressure;BME280_temperature;BME280_humidity;BME280_pressure;Samples;Min_cycle;Max_cycle;Signal;HPM_P1;HPM_P2
2021/04/22 00:00:02;;;;;;;11.75;7.63;;;6.90;83.50;;;;;;5060737;28;20071;-86
2021/04/22 00:02:28;;;;;;;11.55;7.75;;;7.00;83.40;;;;;;5078558;28;20059;-85
2021/04/22 00:04:54;;;;;;;9.25;7.50;;;7.00;83.20;;;;;;5057653;28;20048;-84
2021/04/22 00:07:20;;;;;;;8.05;6.95;;;7.00;83.10;;;;;;5057736;28;20520;-85
2021/04/22 00:09:48;;;;;;;12.07;8.15;;;7.00;83.20;;;;;;5070877;28;20036;-84
2021/04/22 00:12:14;;;;;;;10.80;7.88;;;7.10;83.20;;;;;;5075952;28;20021;-87
2021/04/22 00:14:40;;;;;;;11.38;8.95;;;7.10;82.90;;;;;;5078161;28;20389;-86
2021/04/22 00:17:10;;;;;;;10.38;8.68;;;7.10;82.90;;;;;;5077154;28;20028;-86
2021/04/22 00:19:37;;;;;;;11.82;8.65;;;7.10;82.90;;;;;;5073440;28;20036;-85
2021/04/22 00:22:04;;;;;;;10.10;6.95;;;7.10;82.90;;;;;;5077557;28;20029;-85
2021/04/22 00:24:30;;;;;;;10.32;7.80;;;7.10;82.80;;;;;;5075582;28;20048;-85
2021/04/22 00:26:56;;;;;;;9.77;7.72;;;7.10;83.00;;;;;;5076162;28;20474;-85
2021/04/22 00:29:21;;;;;;;10.48;7.50;;;7.10;83.00;;;;;;5079137;28;20035;-83
2021/04/22 00:31:47;;;;;;;8.02;6.72;;;7.10;83.00;;;;;;5078396;28;20052;-85
2021/04/22 00:34:13;;;;;;;14.27;8.20;;;7.10;82.80;;;;;;5074014;28;20032;-84
2021/04/22 00:36:39;;;;;;;10.50;7.60;;;7.10;83.00;;;;;;5073927;28;20013;-84
2021/04/22 00:39:05;;;;;;;11.00;7.80;;;7.10;83.20;;;;;;5073635;28;20032;-83
2021/04/22 00:41:31;;;;;;;10.30;8.32;;;7.10;83.20;;;;;;5073015;28;20066;-83
2021/04/22 00:43:57;;;;;;;10.55;8.45;;;7.00;83.30;;;;;;5073151;28;20032;-82
2021/04/22 00:46:24;;;;;;;9.68;7.95;;;7.10;83.40;;;;;;5070583;28;20059;-83
2021/04/22 00:48:50;;;;;;;11.87;8.73;;;7.00;83.30;;;;;;5079196;28;20116;-82
2021/04/22 00:51:15;;;;;;;10.93;8.18;;;7.00;83.30;;;;;;5060494;28;20339;-83
2021/04/22 00:53:42;;;;;;;11.40;8.40;;;7.00;83.30;;;;;;5055795;28;20017;-84
2021/04/22 00:56:08;;;;;;;11.00;8.50;;;7.00;83.30;;;;;;5072323;28;20021;-84
2021/04/22 00:58:33;;;;;;;9.90;8.52;;;7.10;83.60;;;;;;5072724;28;20026;-83
2021/04/22 01:01:01;;;;;;;11.40;8.25;;;7.10;83.60;;;;;;5073015;28;20052;-83
2021/04/22 01:03:28;;;;;;;;;;;7.10;83.60;;;;;;5073116;28;20025;-82
2021/04/22 01:06:04;;;;;;;11.47;7.60;;;7.00;83.40;;;;;;5072581;28;19905;-84
2021/04/22 01:08:30;;;;;;;10.32;8.50;;;7.00;83.80;;;;;;5072292;28;20033;-82
2021/04/22 01:10:56;;;;;;;10.85;8.00;;;7.00;84.00;;;;;;5072595;28;20021;-82
2021/04/22 01:13:23;;;;;;;11.45;8.13;;;7.00;84.10;;;;;;5072192;28;20029;-83
2021/04/22 01:15:49;;;;;;;12.55;7.95;;;7.00;84.10;;;;;;5055346;28;20021;-85
2021/04/22 01:18:15;;;;;;;18.10;9.07;;;7.00;84.10;;;;;;5072807;28;20102;-82
2021/04/22 01:20:47;;;;;;;11.35;8.48;;;7.00;84.10;;;;;;5072441;28;20025;-82
2021/04/22 01:23:13;;;;;;;13.27;8.95;;;7.00;84.30;;;;;;5076325;28;20021;-83
2021/04/22 01:25:44;;;;;;;10.80;7.80;;;6.90;84.20;;;;;;5072604;28;20016;-84
2021/04/22 01:28:12;;;;;;;10.05;7.65;;;6.90;84.30;;;;;;5072509;28;20021;-83
2021/04/22 01:30:51;;;;;;;10.18;8.02;;;6.90;84.50;;;;;;5072310;28;20040;-83
2021/04/22 01:33:19;;;;;;;10.02;7.63;;;6.90;84.60;;;;;;5073495;28;20386;-83
2021/04/22 01:35:49;;;;;;;9.18;7.28;;;6.80;84.50;;;;;;5072815;28;20040;-83
2021/04/22 01:38:15;;;;;;;11.75;7.80;;;6.80;84.70;;;;;;5072350;28;20381;-84
2021/04/22 01:40:41;;;;;;;10.45;7.28;;;6.70;84.90;;;;;;5072662;28;20035;-85
2021/04/22 01:43:08;;;;;;;12.05;7.97;;;6.60;85.30;;;;;;5078952;28;20017;-83
2021/04/22 01:45:35;;;;;;;9.10;7.88;;;6.60;85.60;;;;;;5078617;28;20025;-83
2021/04/22 01:48:01;;;;;;;10.05;8.13;;;6.50;85.80;;;;;;5078618;28;20020;-83
2021/04/22 01:50:30;;;;;;;10.15;7.78;;;6.50;86.00;;;;;;5075043;28;20040;-83
2021/04/22 01:52:56;;;;;;;10.55;7.78;;;6.50;86.00;;;;;;5080395;28;20496;-83
2021/04/22 01:55:29;;;;;;;10.88;6.70;;;6.50;86.10;;;;;;5072473;28;20139;-83
2021/04/22 01:57:55;;;;;;;10.43;8.60;;;6.50;86.30;;;;;;5067739;28;20179;-81
2021/04/22 02:00:33;;;;;;;9.90;8.02;;;6.50;86.50;;;;;;5061666;28;20103;-82
2021/04/22 02:03:00;;;;;;;11.10;7.90;;;6.40;86.70;;;;;;5068926;28;20029;-83
2021/04/22 02:05:26;;;;;;;10.52;7.15;;;6.50;86.70;;;;;;5068353;28;20016;-83
2021/04/22 02:07:52;;;;;;;11.57;7.60;;;6.40;86.70;;;;;;5079612;28;20592;-82
2021/04/22 02:10:18;;;;;;;13.93;8.70;;;6.40;87.00;;;;;;5077673;28;20040;-82
2021/04/22 02:12:44;;;;;;;10.82;8.55;;;6.40;87.30;;;;;;5055020;28;20017;-84
2021/04/22 02:15:15;;;;;;;13.65;9.75;;;6.40;87.60;;;;;;5072233;28;20025;-82
2021/04/22 02:17:43;;;;;;;8.90;7.95;;;6.30;87.70;;;;;;5072304;28;20036;-81
2021/04/22 02:20:11;;;;;;;12.75;8.63;;;6.40;87.80;;;;;;5088570;28;20505;-82
2021/04/22 02:22:37;;;;;;;10.32;8.05;;;6.40;87.90;;;;;;5091958;28;20350;-82
2021/04/22 02:25:08;;;;;;;10.07;8.27;;;6.40;88.00;;;;;;5092014;28;20091;-81
2021/04/22 02:27:34;;;;;;;12.30;8.63;;;6.40;88.20;;;;;;5094457;28;20077;-82
2021/04/22 02:30:00;;;;;;;11.68;9.13;;;6.40;88.30;;;;;;5097293;28;20036;-83
2021/04/22 02:32:26;;;;;;;11.85;10.55;;;6.30;88.40;;;;;;5096603;28;20098;-82
2021/04/22 02:34:51;;;;;;;14.55;10.00;;;6.40;88.60;;;;;;5097100;28;20016;-81
2021/04/22 02:37:17;;;;;;;14.60;10.20;;;6.40;88.50;;;;;;5095929;28;20022;-82
2021/04/22 02:39:43;;;;;;;16.08;10.75;;;6.40;88.60;;;;;;5092998;28;20016;-82
2021/04/22 02:42:09;;;;;;;15.20;10.52;;;6.40;88.60;;;;;;5084998;28;20501;-83
2021/04/22 02:44:35;;;;;;;15.18;11.40;;;6.40;88.80;;;;;;5077492;28;20024;-84
2021/04/22 02:47:00;;;;;;;20.17;12.32;;;6.40;89.00;;;;;;5095731;28;20024;-82
2021/04/22 02:49:26;;;;;;;15.80;10.68;;;6.40;89.10;;;;;;5095151;28;20028;-83
2021/04/22 02:51:52;;;;;;;14.55;10.40;;;6.40;89.20;;;;;;5095427;28;20073;-82
2021/04/22 02:54:18;;;;;;;13.85;11.52;;;6.40;89.30;;;;;;5094973;28;20024;-80
2021/04/22 02:56:44;;;;;;;13.30;9.52;;;6.40;89.70;;;;;;5089544;28;20488;-81
2021/04/22 02:59:09;;;;;;;13.55;10.10;;;6.30;89.80;;;;;;5076669;28;20027;-81
2021/04/22 03:01:35;;;;;;;14.30;11.07;;;6.30;90.00;;;;;;5094877;28;20039;-81
2021/04/22 03:04:01;;;;;;;12.38;9.38;;;6.30;90.00;;;;;;5094912;28;20031;-83
2021/04/22 03:06:28;;;;;;;13.98;10.13;;;6.20;90.20;;;;;;5095191;28;20377;-83
2021/04/22 03:08:54;;;;;;;13.93;9.93;;;6.20;90.30;;;;;;5094715;28;20050;-82
2021/04/22 03:11:20;;;;;;;12.63;10.73;;;6.10;90.40;;;;;;5094959;28;20016;-84
2021/04/22 03:13:45;;;;;;;14.70;10.50;;;6.10;90.50;;;;;;5076844;28;20385;-83
2021/04/22 03:16:11;;;;;;;13.65;10.52;;;6.10;90.80;;;;;;5091415;28;20020;-82
2021/04/22 03:18:37;;;;;;;14.00;11.35;;;6.10;90.60;;;;;;5089905;28;20469;-81
2021/04/22 03:21:03;;;;;;;20.88;12.52;;;6.10;90.80;;;;;;5095388;28;20085;-82
2021/04/22 03:23:29;;;;;;;13.40;10.57;;;6.00;90.80;;;;;;5098195;28;20070;-83
2021/04/22 03:25:55;;;;;;;15.63;10.50;;;6.10;90.90;;;;;;5100379;28;20550;-81
2021/04/22 03:28:20;;;;;;;11.50;9.85;;;6.10;90.90;;;;;;5095503;28;20031;-83
2021/04/22 03:30:49;;;;;;;15.60;11.75;;;6.20;90.90;;;;;;5104416;28;20020;-84
2021/04/22 03:33:15;;;;;;;13.20;10.70;;;6.20;90.80;;;;;;5102771;28;20020;-83
2021/04/22 03:35:41;;;;;;;13.55;11.15;;;6.30;90.70;;;;;;5098990;28;20024;-81
2021/04/22 03:38:07;;;;;;;14.38;10.65;;;6.40;90.70;;;;;;5087480;28;20021;-83
2021/04/22 03:40:33;;;;;;;14.15;10.50;;;6.50;90.60;;;;;;5089638;28;20027;-83
2021/04/22 03:42:59;;;;;;;13.77;11.15;;;6.50;90.40;;;;;;5077277;28;20404;-82
2021/04/22 03:45:26;;;;;;;12.43;9.15;;;6.60;90.30;;;;;;5095737;28;20035;-84
2021/04/22 03:47:52;;;;;;;17.10;11.55;;;6.70;90.10;;;;;;5091016;28;20024;-82
2021/04/22 03:50:19;;;;;;;12.95;10.82;;;6.60;90.00;;;;;;5094710;28;20174;-82
2021/04/22 03:52:46;;;;;;;11.90;10.70;;;6.70;90.10;;;;;;5072299;28;20073;-84
2021/04/22 03:55:13;;;;;;;14.07;9.50;;;6.80;89.90;;;;;;5091865;28;20307;-84
2021/04/22 03:57:40;;;;;;;14.85;10.98;;;6.90;89.60;;;;;;5074888;28;20024;-84
2021/04/22 04:00:12;;;;;;;15.20;11.63;;;7.00;89.30;;;;;;5097377;28;20020;-82
2021/04/22 04:02:38;;;;;;;18.05;12.35;;;7.00;89.10;;;;;;5107588;28;20016;-81
2021/04/22 04:05:04;;;;;;;14.05;12.30;;;7.20;88.90;;;;;;5100715;28;20075;-85
2021/04/22 04:07:30;;;;;;;11.05;9.00;;;7.20;88.50;;;;;;5086707;28;20027;-84
2021/04/22 04:09:56;;;;;;;11.15;9.30;;;7.30;88.30;;;;;;5097872;28;20027;-83
2021/04/22 04:12:22;;;;;;;15.32;10.50;;;7.30;87.70;;;;;;5091085;28;20025;-83
2021/04/22 04:14:48;;;;;;;13.50;9.27;;;7.40;87.90;;;;;;5088441;28;20028;-83
2021/04/22 04:17:13;;;;;;;12.18;9.77;;;7.40;87.40;;;;;;5080896;28;20021;-83
2021/04/22 04:19:39;;;;;;;13.23;9.13;;;7.40;87.40;;;;;;5096684;28;20040;-85
2021/04/22 04:22:05;;;;;;;14.77;10.30;;;7.40;87.50;;;;;;5094825;28;20448;-85
2021/04/22 04:24:31;;;;;;;16.63;11.85;;;7.40;87.40;;;;;;5086867;28;20016;-84
2021/04/22 04:26:57;;;;;;;10.90;9.80;;;7.40;87.30;;;;;;5063844;28;20047;-84
2021/04/22 04:29:22;;;;;;;14.00;11.25;;;7.50;87.40;;;;;;5091848;28;20115;-84
2021/04/22 04:31:48;;;;;;;11.70;10.48;;;7.60;87.50;;;;;;5092918;28;20035;-83
2021/04/22 04:34:14;;;;;;;12.80;9.18;;;7.80;87.20;;;;;;5097559;28;20043;-83
2021/04/22 04:36:45;;;;;;;14.68;10.77;;;8.00;87.30;;;;;;5097143;28;20016;-83
2021/04/22 04:39:12;;;;;;;15.75;10.80;;;8.50;86.90;;;;;;5093356;28;20031;-85
2021/04/22 04:41:38;;;;;;;11.23;10.00;;;9.00;84.30;;;;;;5093471;28;20026;-84
2021/04/22 04:44:04;;;;;;;12.52;10.02;;;9.50;82.20;;;;;;5077334;28;20392;-84
2021/04/22 04:46:34;;;;;;;14.45;10.07;;;10.10;80.30;;;;;;5075915;28;20023;-84
2021/04/22 04:49:00;;;;;;;12.52;10.50;;;10.80;77.30;;;;;;5093715;28;20032;-84
2021/04/22 04:51:26;;;;;;;16.73;10.77;;;11.30;74.60;;;;;;5066727;28;20376;-86
2021/04/22 04:53:52;;;;;;;9.82;8.63;;;12.00;73.20;;;;;;5095578;28;20063;-87
2021/04/22 04:56:19;;;;;;;11.80;9.43;;;12.20;69.90;;;;;;5089626;28;20043;-87
2021/04/22 04:58:46;;;;;;;11.30;9.38;;;12.30;69.00;;;;;;5094788;28;20066;-83
2021/04/22 05:01:12;;;;;;;12.88;10.27;;;12.50;69.00;;;;;;5094409;28;20095;-84
2021/04/22 05:03:38;;;;;;;11.35;9.75;;;12.80;67.70;;;;;;5098368;28;20076;-86
2021/04/22 05:06:05;;;;;;;10.63;9.45;;;13.00;65.80;;;;;;5096851;28;20039;-86
2021/04/22 05:08:31;;;;;;;13.40;9.75;;;13.30;65.30;;;;;;5096722;28;20046;-88
2021/04/22 05:10:57;;;;;;;11.38;9.73;;;13.80;63.90;;;;;;5096843;28;20182;-86
2021/04/22 05:13:22;;;;;;;11.60;9.32;;;14.20;62.10;;;;;;5094644;28;20115;-86
2021/04/22 05:15:48;;;;;;;13.02;9.45;;;14.30;61.00;;;;;;5094989;28;20036;-85
2021/04/22 05:18:14;;;;;;;11.60;8.63;;;14.70;60.30;;;;;;5079505;28;20060;-86
2021/04/22 05:20:40;;;;;;;10.98;9.02;;;15.10;58.20;;;;;;5077187;28;20067;-87
2021/04/22 05:23:06;;;;;;;11.98;9.13;;;15.20;58.60;;;;;;5096905;28;20067;-87
2021/04/22 05:25:32;;;;;;;9.88;8.30;;;14.80;57.50;;;;;;5077392;28;20028;-89
2021/04/22 05:27:58;;;;;;;12.77;9.45;;;14.70;58.00;;;;;;5090553;28;20443;-88
2021/04/22 05:30:24;;;;;;;11.77;9.52;;;14.20;59.00;;;;;;5095678;28;20032;-86
2021/04/22 05:32:50;;;;;;;10.60;8.90;;;14.70;59.00;;;;;;5075744;28;20024;-88
2021/04/22 05:35:16;;;;;;;12.45;9.05;;;14.70;57.50;;;;;;5095768;28;20028;-84
2021/04/22 05:37:42;;;;;;;12.48;9.75;;;14.30;58.30;;;;;;5094832;28;20100;-89
2021/04/22 05:40:09;;;;;;;12.68;8.90;;;14.70;58.20;;;;;;5098067;28;20078;-89
2021/04/22 05:42:34;;;;;;;12.50;8.70;;;15.40;55.90;;;;;;5085991;28;20095;-90
2021/04/22 05:45:00;;;;;;;14.18;9.85;;;15.60;55.00;;;;;;5098064;28;20067;-89
2021/04/22 05:47:26;;;;;;;11.15;8.20;;;16.10;54.80;;;;;;5096184;28;20016;-87
2021/04/22 05:49:52;;;;;;;10.35;8.88;;;16.80;52.50;;;;;;5094572;28;20059;-89
2021/04/22 05:52:18;;;;;;;11.25;9.20;;;16.60;51.80;;;;;;5095545;28;20043;-87
2021/04/22 05:54:43;;;;;;;10.57;8.48;;;16.50;52.10;;;;;;5095788;28;20024;-89
2021/04/22 05:57:09;;;;;;;9.30;8.25;;;16.20;52.40;;;;;;5096091;28;20032;-87
2021/04/22 05:59:35;;;;;;;8.50;7.50;;;16.90;51.50;;;;;;5076268;28;20032;-87
2021/04/22 06:02:02;;;;;;;10.73;8.18;;;16.60;51.20;;;;;;5094954;28;20413;-87
2021/04/22 06:04:28;;;;;;;13.57;9.13;;;17.00;51.40;;;;;;5106808;28;20035;-87
2021/04/22 06:06:54;;;;;;;9.30;7.85;;;17.30;49.90;;;;;;5104885;28;20020;-86
2021/04/22 06:09:20;;;;;;;10.88;8.15;;;17.50;48.70;;;;;;5098686;28;20446;-87
2021/04/22 06:11:46;;;;;;;10.82;8.52;;;17.40;48.80;;;;;;5097208;28;20043;-85
2021/04/22 06:14:11;;;;;;;10.82;9.30;;;18.00;49.00;;;;;;5096894;28;20020;-84
2021/04/22 06:16:37;;;;;;;13.93;9.05;;;18.80;47.30;;;;;;5092932;28;20500;-85
2021/04/22 06:19:05;;;;;;;9.90;8.57;;;19.60;45.90;;;;;;5069593;28;20071;-85
2021/04/22 06:21:31;;;;;;;8.98;7.30;;;20.50;43.70;;;;;;5065395;28;20021;-88
2021/04/22 06:23:57;;;;;;;8.98;7.97;;;19.90;43.20;;;;;;5067555;28;20033;-83
2021/04/22 06:26:23;;;;;;;12.02;8.25;;;19.50;44.30;;;;;;5077579;28;20016;-83
2021/04/22 06:28:50;;;;;;;8.93;8.02;;;19.10;44.50;;;;;;5077591;28;20025;-88
2021/04/22 06:31:16;;;;;;;8.98;7.55;;;19.10;44.70;;;;;;5081054;28;20378;-88
2021/04/22 06:33:42;;;;;;;9.82;7.03;;;19.60;44.40;;;;;;5067210;28;20029;-87
2021/04/22 06:36:08;;;;;;;9.80;6.90;;;19.80;43.50;;;;;;5067573;28;20031;-90
2021/04/22 06:38:34;;;;;;;8.30;6.72;;;20.30;42.40;;;;;;5094565;28;20020;-90
2021/04/22 06:41:00;;;;;;;9.60;7.60;;;20.30;41.70;;;;;;5082606;28;20035;-89
2021/04/22 06:43:26;;;;;;;9.77;6.47;;;20.30;42.40;;;;;;5078712;28;20055;-88
2021/04/22 06:45:52;;;;;;;7.75;6.85;;;20.80;41.60;;;;;;5060899;28;20039;-87
2021/04/22 06:48:19;;;;;;;10.55;7.90;;;19.60;42.40;;;;;;5077995;28;20028;-88
2021/04/22 06:50:45;;;;;;;8.10;7.10;;;19.40;44.00;;;;;;5059956;28;20024;-86
2021/04/22 06:53:12;;;;;;;8.63;7.65;;;20.20;43.20;;;;;;5078979;28;20424;-87
2021/04/22 06:55:38;;;;;;;10.30;7.03;;;21.10;41.90;;;;;;5062886;28;20047;-88
2021/04/22 06:58:06;;;;;;;9.57;6.88;;;21.90;40.20;;;;;;5082311;28;20359;-87
2021/04/22 07:00:39;;;;;;;8.35;6.72;;;21.10;39.60;;;;;;5078173;28;20672;-86
2021/04/22 07:03:06;;;;;;;11.65;7.47;;;21.10;40.70;;;;;;5078550;28;20429;-88
2021/04/22 07:05:32;;;;;;;8.07;6.50;;;21.70;39.80;;;;;;5082402;28;20512;-90
2021/04/22 07:07:58;;;;;;;10.02;7.22;;;21.40;39.10;;;;;;5078373;28;20039;-86
2021/04/22 07:10:24;;;;;;;8.88;6.75;;;19.50;41.60;;;;;;5077169;28;20020;-88
2021/04/22 07:12:50;;;;;;;9.90;6.93;;;19.30;43.60;;;;;;5059497;28;20050;-89
2021/04/22 07:15:16;;;;;;;7.65;6.38;;;19.90;43.60;;;;;;5076528;28;20012;-87
2021/04/22 07:17:42;;;;;;;11.43;6.97;;;19.50;43.10;;;;;;5078507;28;20031;-89
2021/04/22 07:20:15;;;;;;;8.55;6.90;;;19.60;43.20;;;;;;5092533;28;20500;-88
2021/04/22 07:22:41;;;;;;;10.85;6.40;;;20.10;42.60;;;;;;5100686;28;20031;-88
2021/04/22 07:25:09;;;;;;;8.57;6.97;;;19.80;41.90;;;;;;5097005;28;20016;-89
2021/04/22 07:27:35;;;;;;;8.50;6.30;;;20.20;42.10;;;;;;5096177;28;20467;-88
2021/04/22 07:30:03;;;;;;;8.60;6.70;;;20.70;40.80;;;;;;5097903;28;20377;-88
2021/04/22 07:32:28;;;;;;;7.18;5.57;;;21.20;40.60;;;;;;5097418;28;20020;-89
2021/04/22 07:34:54;;;;;;;9.45;6.80;;;22.00;38.50;;;;;;5097996;28;20028;-89
2021/04/22 07:37:20;;;;;;;9.93;6.47;;;22.20;38.10;;;;;;5097715;28;20024;-89
2021/04/22 07:39:46;;;;;;;10.38;6.10;;;23.40;37.00;;;;;;5082162;28;20028;-88
2021/04/22 07:42:13;;;;;;;8.48;5.63;;;24.30;35.50;;;;;;5106477;28;20517;-89
2021/04/22 07:44:39;;;;;;;8.30;5.93;;;23.50;34.90;;;;;;5086828;28;20035;-91
2021/04/22 07:47:07;;;;;;;11.32;6.10;;;22.30;36.60;;;;;;5100940;28;20024;-89
2021/04/22 07:49:33;;;;;;;10.60;6.00;;;21.90;37.80;;;;;;5089038;28;20035;-88
2021/04/22 07:51:59;;;;;;;6.30;5.65;;;22.30;37.20;;;;;;5105079;28;20031;-87
2021/04/22 07:54:24;;;;;;;9.35;6.45;;;21.40;37.40;;;;;;5100252;28;20032;-88
2021/04/22 07:56:50;;;;;;;7.55;5.97;;;20.50;39.80;;;;;;5098254;28;20448;-88
2021/04/22 07:59:16;;;;;;;7.38;5.38;;;21.30;39.40;;;;;;5097314;28;20118;-88
2021/04/22 08:01:43;;;;;;;8.18;6.07;;;21.90;37.70;;;;;;5097839;28;20034;-89
2021/04/22 08:04:09;;;;;;;;;;;21.90;37.50;;;;;;5098163;28;20024;-87
2021/04/22 08:06:35;;;;;;;6.10;4.83;;;22.10;38.50;;;;;;5078949;28;20253;-87
2021/04/22 08:09:02;;;;;;;6.43;5.13;;;22.20;37.00;;;;;;5102513;28;20043;-91
2021/04/22 08:11:28;;;;;;;9.07;6.22;;;21.60;38.00;;;;;;5109673;28;20031;-89
2021/04/22 08:13:54;;;;;;;9.13;5.45;;;22.50;37.30;;;;;;5106718;28;20017;-87
2021/04/22 08:16:20;;;;;;;6.45;5.28;;;23.20;35.80;;;;;;5090837;28;20086;-89
2021/04/22 08:18:46;;;;;;;8.20;5.95;;;22.90;35.40;;;;;;5078958;28;20020;-88
2021/04/22 08:21:12;;;;;;;7.72;5.05;;;22.10;37.00;;;;;;5086336;28;20028;-89
2021/04/22 08:23:38;;;;;;;6.78;5.28;;;22.80;36.60;;;;;;5083030;28;20021;-88
2021/04/22 08:26:36;;;;;;;8.18;6.10;;;21.60;37.60;;;;;;5086676;28;20032;-87
2021/04/22 08:29:27;;;;;;;8.73;6.07;;;21.70;38.00;;;;;;5077265;28;20039;-89
2021/04/22 08:31:53;;;;;;;8.48;5.55;;;21.90;38.10;;;;;;5088734;28;20020;-89
2021/04/22 08:34:19;;;;;;;7.70;5.57;;;21.50;37.40;;;;;;5065393;28;20020;-87
2021/04/22 08:36:45;;;;;;;10.95;7.13;;;20.40;39.10;;;;;;5069191;28;20016;-88
2021/04/22 08:39:12;;;;;;;11.38;6.90;;;19.70;40.90;;;;;;5075269;28;20038;-88
2021/04/22 08:41:39;;;;;;;9.65;5.90;;;19.00;42.20;;;;;;5076153;28;20100;-87
2021/04/22 08:44:06;;;;;;;9.73;5.47;;;17.90;44.40;;;;;;5078178;28;20067;-88
2021/04/22 08:46:37;;;;;;;10.55;6.20;;;17.10;46.60;;;;;;5076855;28;20029;-88
2021/04/22 08:49:03;;;;;;;10.10;6.63;;;16.60;48.50;;;;;;5068821;28;20060;-90
2021/04/22 08:51:29;;;;;;;12.73;7.93;;;16.60;49.00;;;;;;5081580;28;20342;-88
2021/04/22 08:53:55;;;;;;;9.63;7.03;;;16.50;49.60;;;;;;5084709;28;20075;-88
2021/04/22 08:56:21;;;;;;;7.68;6.60;;;16.60;49.70;;;;;;5071857;28;20020;-87
2021/04/22 08:58:49;;;;;;;8.63;6.72;;;16.40;49.70;;;;;;5081070;28;20039;-87
2021/04/22 09:01:19;;;;;;;11.00;7.03;;;16.00;50.70;;;;;;5078881;28;20048;-88
2021/04/22 09:03:47;;;;;;;10.00;7.32;;;15.70;52.00;;;;;;5089399;28;20362;-88
2021/04/22 09:06:12;;;;;;;;;;;15.40;52.90;;;;;;5097245;28;20043;-86
2021/04/22 09:08:43;;;;;;;8.98;6.65;;;15.20;52.20;;;;;;5090588;28;19950;-87
2021/04/22 09:11:14;;;;;;;7.90;6.25;;;;;;;;;;5061328;28;20024;-88
2021/04/22 09:13:40;;;;;;;11.48;6.15;;;15.00;54.10;;;;;;5079854;28;20430;-87
2021/04/22 09:16:15;;;;;;;7.57;6.45;;;14.70;55.90;;;;;;5083984;28;20029;-86
2021/04/22 09:18:44;;;;;;;9.70;6.10;;;14.80;55.60;;;;;;5102146;28;20082;-89
2021/04/22 09:21:22;;;;;;;8.00;6.68;;;14.70;56.50;;;;;;5067969;28;20024;-86
2021/04/22 09:24:01;;;;;;;11.50;6.93;;;14.60;56.60;;;;;;5089020;28;20032;-90
2021/04/22 09:26:42;;;;;;;8.07;6.35;;;14.60;56.70;;;;;;5090043;28;20056;-89
2021/04/22 09:29:10;;;;;;;9.13;6.55;;;15.00;56.10;;;;;;5061481;28;20055;-88
2021/04/22 09:31:36;;;;;;;12.27;8.00;;;15.20;55.40;;;;;;5077900;28;20025;-88
2021/04/22 09:34:06;;;;;;;6.65;5.97;;;15.20;54.90;;;;;;5079750;28;20029;-88
2021/04/22 09:36:54;;;;;;;7.55;5.47;;;15.30;54.60;;;;;;5085965;28;20021;-87
2021/04/22 09:39:25;;;;;;;12.32;6.60;;;15.40;54.40;;;;;;5084913;28;20032;-87
2021/04/22 09:41:55;;;;;;;10.70;5.75;;;15.50;54.20;;;;;;5070120;28;20084;-90
2021/04/22 09:44:21;;;;;;;8.85;6.07;;;15.50;53.90;;;;;;5087762;28;20139;-89
2021/04/22 09:47:00;;;;;;;9.10;6.20;;;15.60;53.80;;;;;;5083984;28;20027;-88
2021/04/22 09:49:26;;;;;;;8.07;6.28;;;15.80;53.60;;;;;;5067987;28;20020;-89
2021/04/22 09:51:52;;;;;;;10.05;6.38;;;16.00;53.20;;;;;;5083861;28;20114;-88
2021/04/22 09:54:21;;;;;;;8.35;6.53;;;16.00;53.10;;;;;;5083209;28;20056;-87
2021/04/22 09:56:55;;;;;;;6.53;5.65;;;16.00;52.60;;;;;;5082714;28;20090;-85
2021/04/22 09:59:24;;;;;;;7.28;5.63;;;16.00;52.90;;;;;;5083395;28;20032;-87
2021/04/22 10:01:59;;;;;;;11.70;6.05;;;17.30;51.60;;;;;;5096247;28;20024;-87
2021/04/22 10:04:46;;;;;;;9.57;4.68;;;18.80;47.40;;;;;;5076191;28;20009;-88
2021/04/22 10:07:28;;;;;;;6.75;5.43;;;19.60;45.90;;;;;;5075035;28;20032;-88
2021/04/22 10:09:57;;;;;;;8.20;5.75;;;20.90;44.00;;;;;;5067227;28;20025;-90
2021/04/22 10:12:26;;;;;;;6.15;4.90;;;21.70;40.70;;;;;;5085910;28;20039;-88
2021/04/22 10:14:54;;;;;;;5.57;4.32;;;22.30;40.50;;;;;;5085420;28;20478;-86
2021/04/22 10:17:23;;;;;;;8.35;5.10;;;22.50;38.20;;;;;;5084313;28;20441;-86
2021/04/22 10:20:05;;;;;;;5.38;4.85;;;22.70;38.40;;;;;;5096020;28;20040;-85
2021/04/22 10:22:36;;;;;;;6.85;4.55;;;23.50;36.70;;;;;;5078358;28;20071;-89
2021/04/22 10:25:06;;;;;;;7.22;5.20;;;22.20;37.60;;;;;;5091894;28;20017;-88
2021/04/22 10:27:32;;;;;;;10.23;5.40;;;20.70;39.30;;;;;;5091517;28;20094;-87
2021/04/22 10:29:59;;;;;;;5.68;4.20;;;19.30;42.40;;;;;;5087388;28;20375;-88
2021/04/22 10:32:27;;;;;;;6.95;5.32;;;18.40;44.10;;;;;;5086027;28;20029;-89
2021/04/22 10:34:53;;;;;;;7.97;4.85;;;17.70;45.70;;;;;;5067792;28;20031;-88
2021/04/22 10:37:25;;;;;;;8.05;5.40;;;17.30;47.50;;;;;;5085927;28;20044;-90
2021/04/22 10:39:56;;;;;;;7.88;5.32;;;17.30;48.00;;;;;;5087719;28;20056;-86
2021/04/22 10:42:23;;;;;;;9.40;5.63;;;17.40;48.40;;;;;;5071168;28;20020;-90
2021/04/22 10:44:49;;;;;;;8.88;6.07;;;17.40;48.20;;;;;;5084879;28;20095;-91
2021/04/22 10:47:19;;;;;;;7.30;5.18;;;17.40;48.40;;;;;;5065759;28;20477;-88
2021/04/22 10:49:45;;;;;;;8.60;7.00;;;17.30;48.00;;;;;;5098008;28;20098;-88
2021/04/22 10:52:17;;;;;;;8.50;5.80;;;17.10;48.90;;;;;;5081846;28;20481;-87
2021/04/22 10:54:45;;;;;;;6.75;4.90;;;17.00;49.10;;;;;;5082464;28;20100;-88
2021/04/22 10:57:14;;;;;;;9.15;5.40;;;17.00;48.80;;;;;;5084839;28;20023;-88
2021/04/22 10:59:44;;;;;;;7.82;4.95;;;16.80;48.50;;;;;;5082306;28;20032;-87
2021/04/22 11:02:17;;;;;;;11.00;5.13;;;16.70;49.10;;;;;;5078814;28;20021;-88
2021/04/22 11:04:45;;;;;;;7.30;5.20;;;16.60;49.00;;;;;;5077609;28;20025;-87
2021/04/22 11:07:25;;;;;;;7.95;5.72;;;16.60;49.20;;;;;;5059897;28;20391;-88
2021/04/22 11:09:55;;;;;;;13.43;5.70;;;16.60;49.20;;;;;;5076827;28;20029;-87
2021/04/22 11:12:28;;;;;;;10.07;5.70;;;16.60;49.60;;;;;;5063792;28;20059;-87
2021/04/22 11:14:56;;;;;;;6.00;5.18;;;16.70;48.90;;;;;;5078729;28;20073;-88
2021/04/22 11:17:39;;;;;;;11.05;5.90;;;16.50;48.80;;;;;;5078418;28;20012;-88
2021/04/22 11:20:19;;;;;;;10.30;5.72;;;16.50;49.90;;;;;;5082049;28;20068;-87
2021/04/22 11:22:46;;;;;;;7.22;4.90;;;16.70;49.00;;;;;;5085421;28;20111;-87
2021/04/22 11:25:23;;;;;;;14.63;6.57;;;16.60;49.10;;;;;;5077528;28;20017;-89
2021/04/22 11:27:53;;;;;;;9.85;5.80;;;16.60;49.00;;;;;;5077947;28;20013;-89
2021/04/22 11:30:32;;;;;;;7.90;6.50;;;16.70;49.10;;;;;;5061572;28;20028;-90
2021/04/22 11:33:00;;;;;;;11.00;5.43;;;16.70;48.90;;;;;;5064545;28;20033;-88
2021/04/22 11:35:30;;;;;;;10.40;6.25;;;16.70;49.00;;;;;;5082197;28;20048;-88
2021/04/22 11:38:07;;;;;;;7.70;6.07;;;16.70;49.40;;;;;;5078581;28;20028;-89
2021/04/22 11:40:49;;;;;;;6.13;5.43;;;16.60;49.00;;;;;;5077550;28;20063;-87
2021/04/22 11:43:24;;;;;;;7.35;5.10;;;16.40;49.50;;;;;;5067666;28;20040;-88
2021/04/22 11:45:53;;;;;;;8.32;5.47;;;16.30;48.90;;;;;;5085582;28;20080;-85
2021/04/22 11:48:23;;;;;;;5.90;4.38;;;16.20;49.50;;;;;;5062250;28;20377;-87
2021/04/22 11:50:55;;;;;;;8.88;5.50;;;16.40;49.50;;;;;;5078668;28;20436;-88
2021/04/22 11:53:33;;;;;;;8.82;5.55;;;16.30;49.10;;;;;;5078288;28;20020;-89
2021/04/22 11:56:00;;;;;;;6.07;4.82;;;16.30;49.20;;;;;;5078122;28;20017;-90
2021/04/22 11:58:27;;;;;;;9.75;4.78;;;16.20;49.40;;;;;;5077912;28;20071;-87
2021/04/22 12:01:00;;;;;;;6.15;5.53;;;16.40;49.30;;;;;;5077525;28;20028;-90
2021/04/22 12:03:31;;;;;;;13.75;7.35;;;16.30;49.50;;;;;;5079507;28;20421;-88
2021/04/22 12:06:04;;;;;;;7.30;4.97;;;16.40;49.60;;;;;;5082772;28;20076;-85
2021/04/22 12:08:35;;;;;;;7.22;4.88;;;16.60;48.60;;;;;;5079117;28;20044;-87
2021/04/22 12:11:03;;;;;;;8.32;4.85;;;16.80;48.60;;;;;;5079886;28;20039;-90
2021/04/22 12:13:30;;;;;;;7.38;5.63;;;16.90;47.80;;;;;;5082988;28;20013;-90
2021/04/22 12:15:59;;;;;;;4.88;4.30;;;16.90;48.00;;;;;;5079250;28;20025;-87
2021/04/22 12:18:36;;;;;;;9.07;5.18;;;16.80;48.20;;;;;;5077224;28;20111;-86
2021/04/22 12:21:23;;;;;;;6.00;4.53;;;16.50;48.30;;;;;;5076833;28;20041;-86
2021/04/22 12:23:51;;;;;;;7.40;5.28;;;16.20;48.60;;;;;;5076115;28;20021;-86
2021/04/22 12:26:31;;;;;;;7.40;4.43;;;16.10;49.10;;;;;;5077909;28;20044;-88
2021/04/22 12:29:04;;;;;;;10.60;5.07;;;16.00;48.80;;;;;;5079475;28;20025;-89
2021/04/22 12:31:36;;;;;;;8.10;5.03;;;16.00;48.20;;;;;;5084031;28;20044;-89
2021/04/22 12:34:09;;;;;;;6.35;4.03;;;16.20;48.30;;;;;;5079765;28;20040;-88
2021/04/22 12:36:37;;;;;;;6.65;4.82;;;16.30;47.30;;;;;;5079245;28;20028;-87
2021/04/22 12:39:05;;;;;;;11.30;6.68;;;16.40;47.20;;;;;;5065550;28;20028;-90
2021/04/22 12:41:32;;;;;;;9.50;4.18;;;16.60;47.60;;;;;;5084276;28;20023;-87
2021/04/22 12:43:58;;;;;;;4.65;3.97;;;16.80;47.90;;;;;;5098270;28;20428;-88
2021/04/22 12:46:26;;;;;;;8.82;4.03;;;16.60;48.20;;;;;;5059437;28;20017;-88
2021/04/22 12:48:58;;;;;;;8.05;4.57;;;16.40;49.50;;;;;;5070299;28;20056;-88